createdAt,value
2023-09-12T00:00:59.264Z,0.00
2023-09-12T00:01:59.283Z,0.00
2023-09-12T00:02:59.435Z,0.00
2023-09-12T00:03:59.403Z,0.00
2023-09-12T00:04:59.386Z,0.00
2023-09-12T00:05:59.405Z,0.00
2023-09-12T00:06:59.413Z,0.00
2023-09-12T00:07:59.445Z,0.00
2023-09-12T00:08:59.547Z,0.00
2023-09-12T00:09:59.482Z,0.00
2023-09-12T00:10:59.517Z,0.00
2023-09-12T00:11:59.578Z,0.00
2023-09-12T00:12:59.561Z,0.00
2023-09-12T00:13:59.620Z,0.00
2023-09-12T00:14:59.704Z,0.00
2023-09-12T00:15:59.658Z,0.00
2023-09-12T00:16:59.660Z,0.00
2023-09-12T00:17:59.797Z,0.00
2023-09-12T00:18:59.746Z,0.00
2023-09-12T00:19:59.768Z,0.00
2023-09-12T00:20:59.796Z,0.00
2023-09-12T00:21:59.787Z,0.00
2023-09-12T00:22:59.817Z,0.00
2023-09-12T00:23:59.859Z,0.00
2023-09-12T00:24:59.892Z,0.00
2023-09-12T00:25:59.892Z,0.00
2023-09-12T00:26:59.986Z,0.00
2023-09-12T00:27:59.942Z,0.00
2023-09-12T00:28:59.996Z,0.00
2023-09-12T00:30:00.047Z,0.00
2023-09-12T00:31:00.053Z,0.00
2023-09-12T00:32:00.069Z,0.00
2023-09-12T00:33:00.158Z,0.00
2023-09-12T00:34:00.199Z,0.00
2023-09-12T00:35:00.142Z,0.00
2023-09-12T00:36:00.271Z,0.00
2023-09-12T00:37:00.192Z,0.00
2023-09-12T00:38:00.199Z,0.00
2023-09-12T00:39:00.236Z,0.00
2023-09-12T00:40:00.251Z,0.00
2023-09-12T00:41:00.289Z,0.00
2023-09-12T00:42:00.325Z,0.00
2023-09-12T00:43:00.324Z,0.00
2023-09-12T00:44:00.360Z,0.00
2023-09-12T00:45:00.447Z,0.00
2023-09-12T00:46:00.412Z,0.00
2023-09-12T00:47:00.509Z,0.00
2023-09-12T00:48:00.568Z,0.00
2023-09-12T00:49:00.510Z,0.00
2023-09-12T00:50:00.522Z,0.00
2023-09-12T00:51:00.598Z,0.00
2023-09-12T00:52:00.792Z,0.00
2023-09-12T00:53:00.580Z,0.00
2023-09-12T00:54:00.618Z,0.00
2023-09-12T00:55:00.635Z,0.00
2023-09-12T00:56:00.656Z,0.00
2023-09-12T00:57:00.761Z,0.00
2023-09-12T00:58:00.734Z,0.00
2023-09-12T00:59:00.749Z,0.00
2023-09-12T01:00:00.783Z,0.00
2023-09-12T01:01:00.838Z,0.00
2023-09-12T01:02:00.873Z,0.00
2023-09-12T01:03:00.921Z,0.00
2023-09-12T01:04:00.965Z,0.00
2023-09-12T01:05:00.917Z,0.00
2023-09-12T01:06:00.992Z,0.00
2023-09-12T01:07:00.983Z,0.00
2023-09-12T01:08:00.953Z,0.00
2023-09-12T01:09:01.065Z,0.00
2023-09-12T01:10:01.012Z,0.00
2023-09-12T01:11:01.067Z,8.00
2023-09-12T01:12:01.073Z,0.00
2023-09-12T01:13:01.077Z,0.00
2023-09-12T01:14:01.111Z,0.00
2023-09-12T01:15:01.290Z,0.00
2023-09-12T01:16:01.231Z,0.00
2023-09-12T01:17:01.181Z,0.00
2023-09-12T01:18:01.252Z,0.00
2023-09-12T01:19:01.229Z,0.00
2023-09-12T01:20:01.249Z,0.00
2023-09-12T01:21:01.391Z,0.00
2023-09-12T01:22:01.305Z,0.00
2023-09-12T01:23:01.348Z,0.00
2023-09-12T01:24:01.386Z,0.00
2023-09-12T01:25:01.375Z,0.00
2023-09-12T01:26:01.456Z,0.00
2023-09-12T01:27:01.448Z,0.00
2023-09-12T01:28:01.479Z,0.00
2023-09-12T01:29:01.499Z,0.00
2023-09-12T01:30:01.554Z,0.00
2023-09-12T01:31:01.555Z,0.00
2023-09-12T01:32:01.647Z,0.00
2023-09-12T01:33:01.677Z,0.00
2023-09-12T01:34:01.622Z,0.00
2023-09-12T01:35:01.632Z,0.00
2023-09-12T01:36:01.730Z,0.00
2023-09-12T01:37:01.707Z,0.00
2023-09-12T01:38:01.700Z,0.00
2023-09-12T01:39:01.747Z,0.00
2023-09-12T01:40:01.756Z,0.00
2023-09-12T01:41:01.805Z,0.00
2023-09-12T01:42:01.837Z,0.00
2023-09-12T01:43:01.845Z,0.00
2023-09-12T01:44:01.856Z,0.00
2023-09-12T01:45:01.896Z,0.00
2023-09-12T01:46:02.021Z,0.00
2023-09-12T01:47:01.963Z,0.00
2023-09-12T01:48:02.095Z,0.00
2023-09-12T01:49:01.989Z,0.00
2023-09-12T01:50:02.090Z,0.00
2023-09-12T01:51:02.084Z,0.00
2023-09-12T01:52:02.054Z,0.00
2023-09-12T01:53:02.156Z,0.00
2023-09-12T01:54:02.139Z,0.00
2023-09-12T01:55:02.150Z,0.00
2023-09-12T01:56:02.163Z,0.00
2023-09-12T01:57:02.214Z,0.00
2023-09-12T01:58:02.233Z,0.00
2023-09-12T01:59:02.254Z,0.00
2023-09-12T02:00:02.274Z,0.00
2023-09-12T02:01:02.343Z,0.00
2023-09-12T02:02:02.303Z,0.00
2023-09-12T02:03:02.418Z,0.00
2023-09-12T02:04:02.452Z,0.00
2023-09-12T02:05:02.427Z,0.00
2023-09-12T02:06:02.459Z,0.00
2023-09-12T02:07:02.433Z,0.00
2023-09-12T02:08:02.454Z,0.00
2023-09-12T02:09:02.527Z,0.00
2023-09-12T02:10:02.514Z,0.00
2023-09-12T02:11:02.545Z,0.00
2023-09-12T02:12:02.576Z,0.00
2023-09-12T02:13:02.694Z,0.00
2023-09-12T02:14:02.668Z,0.00
2023-09-12T02:15:02.719Z,0.00
2023-09-12T02:16:02.829Z,0.00
2023-09-12T02:17:02.876Z,0.00
2023-09-12T02:18:02.844Z,0.00
2023-09-12T02:19:02.816Z,0.00
2023-09-12T02:20:02.767Z,0.00
2023-09-12T02:21:02.835Z,0.00
2023-09-12T02:22:02.823Z,0.00
2023-09-12T02:23:02.834Z,0.00
2023-09-12T02:24:02.954Z,0.00
2023-09-12T02:25:02.878Z,0.00
2023-09-12T02:26:02.922Z,0.00
2023-09-12T02:27:03.025Z,0.00
2023-09-12T02:28:02.954Z,0.00
2023-09-12T02:29:03.020Z,0.00
2023-09-12T02:30:03.083Z,0.00
2023-09-12T02:31:03.254Z,0.00
2023-09-12T02:32:03.058Z,0.00
2023-09-12T02:33:03.182Z,0.00
2023-09-12T02:34:03.156Z,0.00
2023-09-12T02:35:03.138Z,0.00
2023-09-12T02:36:03.213Z,0.00
2023-09-12T02:37:03.220Z,0.00
2023-09-12T02:38:03.206Z,0.00
2023-09-12T02:39:11.127Z,0.00
2023-09-12T02:40:03.257Z,0.00
2023-09-12T02:41:03.535Z,0.00
2023-09-12T02:42:03.428Z,0.00
2023-09-12T02:43:04.488Z,0.00
2023-09-12T02:44:03.359Z,0.00
2023-09-12T02:45:03.477Z,0.00
2023-09-12T02:46:03.558Z,0.00
2023-09-12T02:47:03.720Z,0.00
2023-09-12T02:48:03.583Z,0.00
2023-09-12T02:49:03.483Z,0.00
2023-09-12T02:50:03.504Z,0.00
2023-09-12T02:51:03.614Z,0.00
2023-09-12T02:52:03.581Z,0.00
2023-09-12T02:53:03.637Z,0.00
2023-09-12T02:54:03.650Z,0.00
2023-09-12T02:55:03.628Z,0.00
2023-09-12T02:56:03.650Z,0.00
2023-09-12T02:57:03.730Z,0.00
2023-09-12T02:58:03.699Z,0.00
2023-09-12T02:59:03.727Z,0.00
2023-09-12T03:00:03.802Z,0.00
2023-09-12T03:01:03.811Z,0.00
2023-09-12T03:02:03.803Z,0.00
2023-09-12T03:03:03.876Z,0.00
2023-09-12T03:04:04.056Z,0.00
2023-09-12T03:05:03.873Z,0.00
2023-09-12T03:06:03.964Z,0.00
2023-09-12T03:07:03.922Z,0.00
2023-09-12T03:08:03.995Z,0.00
2023-09-12T03:09:04.009Z,0.00
2023-09-12T03:10:04.002Z,0.00
2023-09-12T03:11:04.166Z,0.00
2023-09-12T03:12:04.066Z,0.00
2023-09-12T03:13:04.147Z,0.00
2023-09-12T03:14:04.155Z,0.00
2023-09-12T03:15:04.184Z,0.00
2023-09-12T03:16:04.199Z,0.00
2023-09-12T03:17:04.270Z,0.00
2023-09-12T03:18:04.303Z,0.00
2023-09-12T03:19:04.226Z,0.00
2023-09-12T03:20:04.254Z,0.00
2023-09-12T03:21:04.324Z,0.00
2023-09-12T03:22:04.305Z,0.00
2023-09-12T03:23:04.349Z,0.00
2023-09-12T03:24:04.443Z,0.00
2023-09-12T03:25:04.380Z,0.00
2023-09-12T03:26:04.398Z,0.00
2023-09-12T03:27:04.480Z,0.00
2023-09-12T03:28:04.449Z,0.00
2023-09-12T03:29:04.506Z,0.00
2023-09-12T03:30:04.619Z,0.00
2023-09-12T03:31:04.529Z,0.00
2023-09-12T03:32:04.547Z,0.00
2023-09-12T03:33:04.738Z,0.00
2023-09-12T03:34:04.628Z,0.00
2023-09-12T03:35:04.650Z,0.00
2023-09-12T03:36:04.683Z,0.00
2023-09-12T03:37:04.671Z,0.00
2023-09-12T03:38:04.691Z,0.00
2023-09-12T03:39:04.788Z,0.00
2023-09-12T03:40:04.736Z,0.00
2023-09-12T03:41:04.759Z,0.00
2023-09-12T03:42:04.807Z,0.00
2023-09-12T03:43:04.837Z,0.00
2023-09-12T03:44:04.869Z,0.00
2023-09-12T03:45:04.873Z,0.00
2023-09-12T03:46:04.940Z,0.00
2023-09-12T03:47:04.913Z,0.00
2023-09-12T03:48:05.061Z,0.00
2023-09-12T03:49:05.001Z,0.00
2023-09-12T03:50:05.011Z,0.00
2023-09-12T03:51:05.040Z,0.00
2023-09-12T03:52:05.038Z,0.00
2023-09-12T03:53:05.134Z,0.00
2023-09-12T03:54:05.142Z,0.00
2023-09-12T03:55:05.150Z,0.00
2023-09-12T03:56:05.150Z,0.00
2023-09-12T03:57:05.185Z,0.00
2023-09-12T03:58:05.200Z,0.00
2023-09-12T03:59:05.210Z,0.00
2023-09-12T04:00:05.271Z,0.00
2023-09-12T04:01:05.252Z,0.00
2023-09-12T04:02:05.388Z,0.00
2023-09-12T04:03:05.461Z,0.00
2023-09-12T04:04:05.465Z,0.00
2023-09-12T04:05:05.364Z,0.00
2023-09-12T04:06:05.409Z,0.00
2023-09-12T04:07:05.432Z,0.00
2023-09-12T04:08:05.426Z,0.00
2023-09-12T04:09:05.473Z,0.00
2023-09-12T04:10:05.487Z,0.00
2023-09-12T04:11:05.541Z,0.00
2023-09-12T04:12:05.600Z,0.00
2023-09-12T04:13:05.547Z,0.00
2023-09-12T04:14:05.600Z,0.00
2023-09-12T04:15:05.618Z,0.00
2023-09-12T04:16:05.783Z,0.00
2023-09-12T04:17:07.473Z,0.00
2023-09-12T04:18:05.765Z,0.00
2023-09-12T04:19:05.751Z,0.00
2023-09-12T04:20:05.735Z,0.00
2023-09-12T04:21:05.786Z,0.00
2023-09-12T04:22:05.825Z,0.00
2023-09-12T04:23:05.783Z,0.00
2023-09-12T04:24:06.242Z,0.00
2023-09-12T04:25:05.872Z,0.00
2023-09-12T04:26:05.862Z,0.00
2023-09-12T04:27:05.951Z,0.00
2023-09-12T04:28:05.907Z,0.00
2023-09-12T04:29:05.954Z,0.00
2023-09-12T04:30:05.962Z,0.00
2023-09-12T04:31:05.979Z,0.00
2023-09-12T04:32:06.061Z,0.00
2023-09-12T04:33:06.085Z,0.00
2023-09-12T04:34:06.078Z,0.00
2023-09-12T04:35:06.168Z,0.00
2023-09-12T04:36:06.136Z,0.00
2023-09-12T04:37:06.128Z,0.00
2023-09-12T04:38:06.149Z,0.00
2023-09-12T04:39:06.238Z,0.00
2023-09-12T04:40:06.222Z,0.00
2023-09-12T04:41:06.290Z,0.00
2023-09-12T04:42:06.255Z,0.00
2023-09-12T04:43:06.262Z,0.00
2023-09-12T04:44:06.279Z,0.00
2023-09-12T04:45:06.355Z,0.00
2023-09-12T04:46:06.378Z,0.00
2023-09-12T04:47:06.362Z,0.00
2023-09-12T04:48:06.461Z,0.00
2023-09-12T04:49:06.404Z,0.00
2023-09-12T04:50:06.509Z,0.00
2023-09-12T04:51:06.484Z,0.00
2023-09-12T04:52:06.475Z,0.00
2023-09-12T04:53:06.490Z,0.00
2023-09-12T04:54:06.580Z,0.00
2023-09-12T04:55:06.569Z,0.00
2023-09-12T04:56:06.582Z,0.00
2023-09-12T04:57:06.692Z,0.00
2023-09-12T04:58:06.622Z,0.00
2023-09-12T04:59:06.638Z,0.00
2023-09-12T05:00:06.740Z,0.00
2023-09-12T05:01:06.775Z,0.00
2023-09-12T05:02:06.710Z,0.00
2023-09-12T05:03:06.821Z,0.00
2023-09-12T05:04:06.855Z,4.00
2023-09-12T05:05:06.784Z,4.00
2023-09-12T05:06:06.816Z,4.00
2023-09-12T05:07:06.854Z,4.00
2023-09-12T05:08:06.880Z,4.00
2023-09-12T05:09:06.924Z,4.00
2023-09-12T05:10:06.949Z,4.00
2023-09-12T05:11:06.933Z,4.00
2023-09-12T05:12:06.986Z,4.00
2023-09-12T05:13:06.967Z,4.00
2023-09-12T05:14:06.986Z,0.00
2023-09-12T05:15:07.049Z,0.00
2023-09-12T05:16:07.098Z,0.00
2023-09-12T05:17:07.061Z,4.00
2023-09-12T05:18:07.240Z,4.00
2023-09-12T05:19:07.155Z,4.00
2023-09-12T05:20:08.257Z,4.00
2023-09-12T05:21:07.232Z,4.00
2023-09-12T05:22:07.174Z,0.00
2023-09-12T05:23:07.217Z,4.00
2023-09-12T05:24:07.275Z,4.00
2023-09-12T05:25:07.259Z,4.00
2023-09-12T05:26:07.325Z,8.00
2023-09-12T05:27:07.350Z,4.00
2023-09-12T05:28:07.363Z,8.00
2023-09-12T05:29:07.347Z,8.00
2023-09-12T05:30:07.387Z,4.00
2023-09-12T05:31:07.445Z,8.00
2023-09-12T05:32:07.496Z,8.00
2023-09-12T05:33:07.575Z,8.00
2023-09-12T05:34:07.499Z,12.00
2023-09-12T05:35:20.957Z,8.00
2023-09-12T05:36:07.546Z,12.00
2023-09-12T05:37:07.543Z,12.00
2023-09-12T05:38:07.600Z,12.00
2023-09-12T05:39:07.647Z,12.00
2023-09-12T05:40:07.622Z,12.00
2023-09-12T05:41:07.680Z,16.00
2023-09-12T05:42:07.795Z,16.00
2023-09-12T05:43:07.778Z,16.00
2023-09-12T05:44:07.740Z,16.00
2023-09-12T05:45:07.757Z,16.00
2023-09-12T05:46:07.799Z,16.00
2023-09-12T05:47:07.788Z,20.00
2023-09-12T05:48:08.055Z,20.00
2023-09-12T05:49:08.013Z,24.00
2023-09-12T05:50:07.931Z,24.00
2023-09-12T05:51:07.905Z,28.00
2023-09-12T05:52:07.901Z,28.00
2023-09-12T05:53:07.925Z,28.00
2023-09-12T07:23:11.904Z,12.00
2023-09-12T07:24:12.714Z,8.00
2023-09-12T07:25:13.221Z,8.00
2023-09-12T07:26:11.991Z,12.00
2023-09-12T07:27:12.097Z,12.00
2023-09-12T07:28:13.590Z,16.00
2023-09-12T07:29:11.981Z,20.00
2023-09-12T07:30:12.044Z,20.00
2023-09-12T07:31:12.119Z,24.00
2023-09-12T07:32:12.047Z,20.00
2023-09-12T07:33:12.216Z,20.00
2023-09-12T07:34:12.138Z,20.00
2023-09-12T07:35:12.116Z,24.00
2023-09-12T07:36:12.166Z,24.00
2023-09-12T07:37:12.163Z,20.00
2023-09-12T07:38:12.185Z,20.00
2023-09-12T07:39:12.279Z,20.00
2023-09-12T07:40:12.253Z,24.00
2023-09-12T07:41:12.258Z,24.00
2023-09-12T07:42:12.295Z,24.00
2023-09-12T07:43:12.312Z,24.00
2023-09-12T07:44:12.361Z,24.00
2023-09-12T07:45:12.372Z,28.00
2023-09-12T07:46:12.419Z,24.00
2023-09-12T07:47:12.424Z,24.00
2023-09-12T07:48:12.654Z,24.00
2023-09-12T07:49:12.438Z,24.00
2023-09-12T07:50:12.468Z,28.00
2023-09-12T07:51:12.575Z,24.00
2023-09-12T07:52:12.672Z,24.00
2023-09-12T07:53:12.541Z,28.00
2023-09-12T07:54:12.591Z,28.00
2023-09-12T07:55:12.585Z,28.00
2023-09-12T07:56:12.613Z,28.00
2023-09-12T07:57:12.647Z,28.00
2023-09-12T07:58:12.658Z,28.00
2023-09-12T07:59:12.681Z,32.00
2023-09-12T08:00:12.713Z,32.00
2023-09-12T08:01:12.731Z,32.00
2023-09-12T08:02:12.840Z,32.00
2023-09-12T08:03:12.837Z,36.00
2023-09-12T08:04:12.873Z,40.00
2023-09-12T08:05:12.849Z,36.00
2023-09-12T08:06:12.960Z,40.00
2023-09-12T08:07:13.191Z,44.00
2023-09-12T08:08:13.080Z,44.00
2023-09-12T08:09:12.920Z,48.00
2023-09-12T08:10:12.924Z,52.00
2023-09-12T08:11:12.980Z,52.00
2023-09-12T08:12:13.049Z,56.00
2023-09-12T08:13:13.000Z,56.00
2023-09-12T08:14:13.058Z,64.00
2023-09-12T08:15:13.092Z,64.00
2023-09-12T08:16:13.086Z,64.00
2023-09-12T08:17:13.140Z,64.00
2023-09-12T08:18:13.165Z,68.00
2023-09-12T08:19:15.791Z,72.00
2023-09-12T08:20:13.282Z,72.00
2023-09-12T08:21:13.225Z,72.00
2023-09-12T08:22:13.256Z,76.00
2023-09-12T08:23:13.234Z,76.00
2023-09-12T08:24:13.289Z,80.00
2023-09-12T08:25:13.278Z,80.00
2023-09-12T08:26:13.304Z,80.00
2023-09-12T08:27:13.415Z,80.00
2023-09-12T08:28:13.358Z,76.00
2023-09-12T08:29:13.379Z,52.00
2023-09-12T08:30:13.703Z,32.00
2023-09-12T08:31:13.427Z,40.00
2023-09-12T08:32:13.531Z,36.00
2023-09-12T08:33:13.567Z,44.00
2023-09-12T08:34:13.552Z,52.00
2023-09-12T08:35:13.554Z,48.00
2023-09-12T08:36:13.550Z,48.00
2023-09-12T08:37:13.585Z,44.00
2023-09-12T08:38:13.584Z,36.00
2023-09-12T08:39:13.633Z,28.00
2023-09-12T08:40:13.664Z,28.00
2023-09-12T08:41:13.804Z,32.00
2023-09-12T08:47:08.904Z,40.00
2023-09-12T08:48:09.953Z,44.00
2023-09-12T08:49:08.920Z,40.00
2023-09-12T08:50:09.729Z,44.00
2023-09-12T08:51:10.736Z,48.00
2023-09-12T08:52:09.681Z,48.00
2023-09-12T08:53:10.181Z,48.00
2023-09-12T08:54:10.700Z,52.00
2023-09-12T08:55:09.878Z,48.00
2023-09-12T08:56:09.904Z,48.00
2023-09-12T08:57:09.717Z,52.00
2023-09-12T08:58:10.238Z,52.00
2023-09-12T08:59:10.240Z,52.00
2023-09-12T09:00:09.948Z,48.00
2023-09-12T09:01:09.933Z,52.00
2023-09-12T09:02:10.259Z,52.00
2023-09-12T09:03:09.885Z,52.00
2023-09-12T09:04:08.583Z,48.00
2023-09-12T09:05:08.520Z,52.00
2023-09-12T09:06:10.769Z,48.00
2023-09-12T09:07:10.723Z,52.00
2023-09-12T09:08:08.592Z,52.00
2023-09-12T09:09:09.661Z,52.00
2023-09-12T09:10:10.195Z,52.00
2023-09-12T09:11:09.972Z,52.00
2023-09-12T09:12:11.197Z,56.00
2023-09-12T09:13:09.617Z,56.00
2023-09-12T09:14:10.012Z,56.00
2023-09-12T09:15:09.849Z,60.00
2023-09-12T09:16:09.818Z,56.00
2023-09-12T09:17:17.758Z,52.00
2023-09-12T09:18:10.738Z,44.00
2023-09-12T09:19:10.357Z,44.00
2023-09-12T09:20:11.198Z,48.00
2023-09-12T09:21:10.785Z,52.00
2023-09-12T09:22:10.480Z,64.00
2023-09-12T09:23:10.559Z,68.00
2023-09-12T09:24:10.307Z,76.00
2023-09-12T09:25:10.825Z,84.00
2023-09-12T09:26:10.516Z,84.00
2023-09-12T09:27:10.203Z,92.00
2023-09-12T09:28:10.450Z,92.00
2023-09-12T09:29:10.532Z,96.00
2023-09-12T09:30:10.107Z,100.00
2023-09-12T09:31:10.346Z,96.00
2023-09-12T09:32:09.136Z,88.00
2023-09-12T09:33:09.192Z,68.00
2023-09-12T09:34:09.183Z,72.00
2023-09-12T09:35:09.392Z,76.00
2023-09-12T09:36:09.234Z,88.00
2023-09-12T09:37:09.261Z,88.00
2023-09-12T09:38:09.289Z,88.00
2023-09-12T09:39:09.310Z,88.00
2023-09-12T09:40:09.328Z,80.00
2023-09-12T09:41:09.378Z,76.00
2023-09-12T09:42:09.392Z,76.00
2023-09-12T09:43:09.418Z,72.00
2023-09-12T09:44:09.431Z,72.00
2023-09-12T09:45:09.465Z,72.00
2023-09-12T09:46:09.600Z,72.00
2023-09-12T09:47:09.503Z,68.00
2023-09-12T09:48:09.527Z,72.00
2023-09-12T09:49:09.548Z,72.00
2023-09-12T09:50:09.608Z,76.00
2023-09-12T09:51:09.604Z,76.00
2023-09-12T09:52:09.660Z,84.00
2023-09-12T09:53:09.713Z,88.00
2023-09-12T09:54:09.676Z,88.00
2023-09-12T09:55:09.692Z,92.00
2023-09-12T09:56:09.734Z,96.00
2023-09-12T09:57:09.777Z,100.00
2023-09-12T09:58:09.765Z,104.00
2023-09-12T09:59:10.083Z,100.00
2023-09-12T10:00:09.804Z,100.00
2023-09-12T10:01:09.934Z,108.00
2023-09-12T10:02:10.009Z,108.00
2023-09-12T10:03:09.969Z,112.00
2023-09-12T10:04:09.925Z,108.00
2023-09-12T10:05:09.936Z,108.00
2023-09-12T10:06:09.952Z,104.00
2023-09-12T10:07:10.757Z,100.00
2023-09-12T10:08:10.002Z,104.00
2023-09-12T10:09:10.024Z,108.00
2023-09-12T10:10:10.045Z,116.00
2023-09-12T10:11:10.077Z,116.00
2023-09-12T10:12:10.116Z,116.00
2023-09-12T10:13:10.114Z,112.00
2023-09-12T10:14:10.156Z,104.00
2023-09-12T10:15:10.247Z,108.00
2023-09-12T10:16:10.283Z,100.00
2023-09-12T10:17:10.230Z,104.00
2023-09-12T10:19:10.356Z,140.00
2023-09-12T10:20:10.306Z,156.00
2023-09-12T10:21:10.321Z,168.00
2023-09-12T10:22:10.461Z,176.00
2023-09-12T10:23:10.361Z,168.00
2023-09-12T10:24:10.383Z,140.00
2023-09-12T10:25:10.423Z,148.00
2023-09-12T10:26:10.460Z,176.00
2023-09-12T10:27:10.466Z,208.00
2023-09-12T10:28:10.473Z,244.00
2023-09-12T10:29:10.510Z,304.00
2023-09-12T10:30:10.521Z,348.00
2023-09-12T10:31:10.701Z,372.00
2023-09-12T10:32:10.605Z,380.00
2023-09-12T10:33:10.690Z,396.00
2023-09-12T10:34:10.669Z,368.00
2023-09-12T10:35:10.656Z,372.00
2023-09-12T10:36:10.852Z,360.00
2023-09-12T10:37:10.733Z,372.00
2023-09-12T10:38:10.715Z,380.00
2023-09-12T10:39:10.747Z,364.00
2023-09-12T10:40:10.762Z,356.00
2023-09-12T10:41:10.799Z,360.00
2023-09-12T10:42:10.841Z,368.00
2023-09-12T10:43:10.852Z,372.00
2023-09-12T10:44:10.957Z,396.00
2023-09-12T10:45:10.891Z,444.00
2023-09-12T10:46:10.905Z,496.00
2023-09-12T10:47:10.974Z,544.00
2023-09-12T10:48:10.972Z,560.00
2023-09-12T10:49:11.030Z,588.00
2023-09-12T10:50:11.112Z,596.00
2023-09-12T10:51:11.074Z,624.00
2023-09-12T10:52:11.087Z,672.00
2023-09-12T10:53:11.157Z,656.00
2023-09-12T10:54:11.149Z,656.00
2023-09-12T10:55:11.147Z,648.00
2023-09-12T10:56:11.174Z,648.00
2023-09-12T10:57:11.192Z,620.00
2023-09-12T10:58:11.213Z,624.00
2023-09-12T10:59:11.234Z,696.00
2023-09-12T11:00:11.289Z,716.00
2023-09-12T11:01:11.386Z,800.00
2023-09-12T11:02:11.386Z,860.00
2023-09-12T11:03:11.374Z,860.00
2023-09-12T11:06:58.040Z,836.00
2023-09-12T11:07:57.818Z,816.00
2023-09-12T11:08:57.561Z,796.00
2023-09-12T11:10:09.643Z,852.00
2023-09-12T11:10:57.347Z,972.00
2023-09-12T11:11:58.000Z,1060.00
2023-09-12T11:12:57.839Z,1112.00
2023-09-12T11:13:58.341Z,1188.00
2023-09-12T11:14:57.198Z,1084.00
2023-09-12T11:15:57.980Z,1056.00
2023-09-12T11:16:58.723Z,1412.00
2023-09-12T11:17:58.289Z,1304.00
2023-09-12T11:18:58.720Z,1548.00
2023-09-12T11:19:59.647Z,1516.00
2023-09-12T11:20:58.316Z,1352.00
2023-09-12T11:21:56.776Z,1316.00
2023-09-12T11:22:58.653Z,1660.00
2023-09-12T11:23:59.150Z,1604.00
2023-09-12T11:24:58.158Z,1472.00
2023-09-12T11:25:57.382Z,1568.00
2023-09-12T11:26:56.827Z,1544.00
2023-09-12T11:27:56.860Z,1364.00
2023-09-12T11:28:56.841Z,1588.00
2023-09-12T11:29:56.891Z,1644.00
2023-09-12T11:30:57.044Z,1516.00
2023-09-12T11:31:56.928Z,1424.00
2023-09-12T11:32:57.054Z,1680.00
2023-09-12T11:33:57.005Z,1492.00
2023-09-12T11:34:57.005Z,1376.00
2023-09-12T11:35:57.066Z,1336.00
2023-09-12T11:36:57.145Z,1504.00
2023-09-12T11:37:57.104Z,1380.00
2023-09-12T11:38:57.094Z,1212.00
2023-09-12T11:39:57.146Z,1224.00
2023-09-12T11:40:57.177Z,1356.00
2023-09-12T11:41:57.194Z,1552.00
2023-09-12T11:42:58.772Z,1364.00
2023-09-12T11:43:57.229Z,1372.00
2023-09-12T11:44:57.266Z,1368.00
2023-09-12T11:45:57.496Z,1488.00
2023-09-12T11:46:57.416Z,1544.00
2023-09-12T11:47:58.708Z,1612.00
2023-09-12T11:48:59.231Z,1812.00
2023-09-12T11:49:58.568Z,1840.00
2023-09-12T11:50:58.753Z,1916.00
2023-09-12T11:51:57.534Z,2012.00
2023-09-12T11:52:57.617Z,1852.00
2023-09-12T11:53:57.488Z,1724.00
2023-09-12T11:54:57.523Z,1896.00
2023-09-12T11:55:57.548Z,1928.00
2023-09-12T11:56:57.571Z,1772.00
2023-09-12T11:57:57.623Z,1984.00
2023-09-12T11:58:57.615Z,1988.00
2023-09-12T11:59:57.633Z,2008.00
2023-09-12T12:00:57.770Z,1980.00
2023-09-12T12:01:57.789Z,2260.00
2023-09-12T12:02:57.736Z,2192.00
2023-09-12T12:03:57.808Z,2072.00
2023-09-12T12:04:57.821Z,2072.00
2023-09-12T12:05:57.924Z,2000.00
2023-09-12T12:06:57.912Z,1936.00
2023-09-12T12:08:11.743Z,1944.00
2023-09-12T12:08:57.865Z,2028.00
2023-09-12T12:09:57.911Z,2092.00
2023-09-12T12:10:57.912Z,2192.00
2023-09-12T12:11:57.944Z,2352.00
2023-09-12T12:12:58.012Z,2420.00
2023-09-12T12:13:57.992Z,2004.00
2023-09-12T12:14:58.027Z,2100.00
2023-09-12T12:15:58.464Z,2064.00
2023-09-12T12:16:58.083Z,1932.00
2023-09-12T12:17:58.100Z,1944.00
2023-09-12T12:18:58.159Z,1828.00
2023-09-12T12:19:58.143Z,1608.00
2023-09-12T12:20:58.214Z,1628.00
2023-09-12T12:21:58.228Z,1628.00
2023-09-12T12:22:58.223Z,1728.00
2023-09-12T12:23:58.246Z,1708.00
2023-09-12T12:24:58.313Z,1588.00
2023-09-12T12:25:58.350Z,1580.00
2023-09-12T12:26:58.322Z,1756.00
2023-09-12T12:27:58.421Z,1912.00
2023-09-12T12:28:58.376Z,2188.00
2023-09-12T12:29:58.401Z,2144.00
2023-09-12T12:30:58.637Z,2160.00
2023-09-12T12:31:58.488Z,2208.00
2023-09-12T12:33:11.391Z,2212.00
2023-09-12T12:35:08.571Z,2352.00
2023-09-12T12:35:44.478Z,2676.00
2023-09-12T12:35:58.828Z,2632.00
2023-09-12T12:36:59.451Z,2088.00
2023-09-12T12:38:04.301Z,1892.00
2023-09-12T12:38:58.928Z,2072.00
2023-09-12T12:39:58.954Z,2220.00
2023-09-12T12:40:58.690Z,2420.00
2023-09-12T12:41:58.744Z,2364.00
2023-09-12T12:42:58.778Z,2172.00
2023-09-12T12:44:00.671Z,2100.00
2023-09-12T12:44:58.792Z,2068.00
2023-09-12T12:45:58.964Z,2180.00
2023-09-12T12:46:58.910Z,2344.00
2023-09-12T12:47:59.011Z,2608.00
2023-09-12T12:48:58.925Z,2616.00
2023-09-12T12:49:58.929Z,2516.00
2023-09-12T12:50:58.981Z,2708.00
2023-09-12T12:51:59.028Z,2744.00
2023-09-12T12:52:59.002Z,2676.00
2023-09-12T12:53:59.263Z,2368.00
2023-09-12T12:54:59.113Z,2236.00
2023-09-12T12:55:59.087Z,2412.00
2023-09-12T12:56:59.140Z,2668.00
2023-09-12T12:57:59.189Z,2628.00
2023-09-12T12:58:59.170Z,2448.00
2023-09-12T12:59:59.190Z,2348.00
2023-09-12T13:00:59.240Z,2340.00
2023-09-12T13:01:59.828Z,2368.00
2023-09-12T13:02:59.289Z,2512.00
2023-09-12T13:03:59.503Z,2528.00
2023-09-12T13:04:59.358Z,2588.00
2023-09-12T13:05:59.432Z,2592.00
2023-09-12T13:06:59.444Z,2624.00
2023-09-12T13:07:59.427Z,2620.00
2023-09-12T13:08:59.467Z,2684.00
2023-09-12T13:09:59.507Z,2768.00
2023-09-12T13:10:59.492Z,2864.00
2023-09-12T13:11:59.531Z,2888.00
2023-09-12T13:12:59.580Z,2876.00
2023-09-12T13:13:59.595Z,2920.00
2023-09-12T13:14:59.598Z,2924.00
2023-09-12T13:15:59.677Z,2948.00
2023-09-12T13:16:59.780Z,2704.00
2023-09-12T13:17:59.689Z,2692.00
2023-09-12T13:18:59.780Z,2464.00
2023-09-12T13:19:59.724Z,2124.00
2023-09-12T13:20:59.768Z,1896.00
2023-09-12T13:22:00.146Z,1832.00
2023-09-12T13:22:59.840Z,1824.00
2023-09-12T13:24:02.054Z,1840.00
2023-09-12T13:25:00.271Z,1924.00
2023-09-12T13:25:59.896Z,2020.00
2023-09-12T13:26:59.921Z,2072.00
2023-09-12T13:28:00.072Z,2136.00
2023-09-12T13:28:59.972Z,2244.00
2023-09-12T13:30:00.766Z,2316.00
2023-09-12T13:31:00.050Z,2272.00
2023-09-12T13:32:00.104Z,2288.00
2023-09-12T13:33:00.163Z,2460.00
2023-09-12T13:34:00.176Z,2736.00
2023-09-12T13:35:00.165Z,2992.00
2023-09-12T13:36:00.213Z,3172.00
2023-09-12T13:37:11.399Z,3264.00
2023-09-12T13:38:00.210Z,3404.00
2023-09-12T13:39:00.242Z,3468.00
2023-09-12T13:40:00.380Z,3564.00
2023-09-12T13:41:00.290Z,3592.00
2023-09-12T13:42:00.337Z,3684.00
2023-09-12T13:43:00.373Z,3752.00
2023-09-12T13:44:00.430Z,3668.00
2023-09-12T13:45:00.394Z,3692.00
2023-09-12T13:46:00.468Z,3572.00
2023-09-12T13:47:00.446Z,3192.00
2023-09-12T13:48:00.563Z,2988.00
2023-09-12T13:49:00.568Z,3756.00
2023-09-12T13:50:00.536Z,7652.00
2023-09-12T13:51:00.563Z,8212.00
2023-09-12T13:52:00.641Z,4216.00
2023-09-12T13:53:00.647Z,6868.00
2023-09-12T13:54:00.639Z,4752.00
2023-09-12T13:55:00.711Z,5324.00
2023-09-12T13:56:10.445Z,4548.00
2023-09-12T13:57:00.717Z,2980.00
2023-09-12T13:58:00.769Z,3328.00
2023-09-12T13:59:00.820Z,4564.00
2023-09-12T14:00:00.797Z,4804.00
2023-09-12T14:01:00.925Z,4188.00
2023-09-12T14:02:01.039Z,5416.00
2023-09-12T14:03:01.055Z,6020.00
2023-09-12T14:04:01.107Z,3636.00
2023-09-12T14:05:10.325Z,4088.00
2023-09-12T14:06:01.343Z,3480.00
2023-09-12T14:07:01.392Z,3572.00
2023-09-12T14:08:01.129Z,3592.00
2023-09-12T14:09:01.107Z,3276.00
2023-09-12T14:10:01.161Z,3476.00
2023-09-12T14:11:01.436Z,3652.00
2023-09-12T14:12:01.262Z,4796.00
2023-09-12T14:13:10.877Z,5652.00
2023-09-12T14:14:13.570Z,7292.00
2023-09-12T14:15:07.735Z,5304.00
2023-09-12T14:16:01.389Z,4728.00
2023-09-12T14:17:01.413Z,13332.00
2023-09-12T14:18:01.423Z,23136.00
2023-09-12T14:19:01.408Z,12516.00
2023-09-12T14:20:01.422Z,24544.00
2023-09-12T14:21:01.929Z,17824.00
2023-09-12T14:22:02.038Z,21184.00
2023-09-12T14:23:01.518Z,7196.00
2023-09-12T14:24:01.773Z,4428.00
2023-09-12T14:25:02.984Z,4896.00
2023-09-12T14:26:02.873Z,4004.00
2023-09-12T14:27:01.646Z,3600.00